sensor_id;sensor_type;location;lat;lon;timestamp;P1;durP1;ratioP1;P2;durP2;ratioP2
34212;SDS011;20477;51.390;8.102;2023-07-30T00:00:43;3.72;;;2.80;;
34212;SDS011;20477;51.390;8.102;2023-07-30T00:03:11;6.25;;;3.63;;
34212;SDS011;20477;51.390;8.102;2023-07-30T00:05:39;4.57;;;3.40;;
34212;SDS011;20477;51.390;8.102;2023-07-30T00:08:07;4.78;;;3.00;;
34212;SDS011;20477;51.390;8.102;2023-07-30T00:10:35;5.70;;;2.83;;
34212;SDS011;20477;51.390;8.102;2023-07-30T00:13:04;5.22;;;3.03;;
34212;SDS011;20477;51.390;8.102;2023-07-30T00:15:33;4.22;;;3.10;;
34212;SDS011;20477;51.390;8.102;2023-07-30T00:18:01;7.85;;;3.15;;
34212;SDS011;20477;51.390;8.102;2023-07-30T00:20:30;6.30;;;2.63;;
34212;SDS011;20477;51.390;8.102;2023-07-30T00:22:58;8.82;;;3.13;;
34212;SDS011;20477;51.390;8.102;2023-07-30T00:25:26;6.70;;;2.95;;
34212;SDS011;20477;51.390;8.102;2023-07-30T00:27:54;6.15;;;2.80;;
34212;SDS011;20477;51.390;8.102;2023-07-30T00:30:22;9.88;;;2.90;;
34212;SDS011;20477;51.390;8.102;2023-07-30T00:32:52;7.80;;;2.80;;
34212;SDS011;20477;51.390;8.102;2023-07-30T00:35:20;7.18;;;2.85;;
34212;SDS011;20477;51.390;8.102;2023-07-30T00:37:48;4.10;;;2.92;;
34212;SDS011;20477;51.390;8.102;2023-07-30T00:40:17;8.27;;;3.17;;
34212;SDS011;20477;51.390;8.102;2023-07-30T00:42:45;6.15;;;3.63;;
34212;SDS011;20477;51.390;8.102;2023-07-30T00:45:13;3.67;;;2.80;;
34212;SDS011;20477;51.390;8.102;2023-07-30T00:47:41;6.35;;;3.47;;
34212;SDS011;20477;51.390;8.102;2023-07-30T00:50:11;5.30;;;2.92;;
34212;SDS011;20477;51.390;8.102;2023-07-30T00:52:41;6.10;;;2.97;;
34212;SDS011;20477;51.390;8.102;2023-07-30T00:55:09;7.65;;;2.67;;
34212;SDS011;20477;51.390;8.102;2023-07-30T00:57:37;7.80;;;3.70;;
34212;SDS011;20477;51.390;8.102;2023-07-30T01:00:06;10.18;;;2.70;;
34212;SDS011;20477;51.390;8.102;2023-07-30T01:02:35;10.18;;;2.70;;
34212;SDS011;20477;51.390;8.102;2023-07-30T01:05:04;5.03;;;2.70;;
34212;SDS011;20477;51.390;8.102;2023-07-30T01:07:33;7.32;;;2.95;;
34212;SDS011;20477;51.390;8.102;2023-07-30T01:10:02;6.78;;;2.80;;
34212;SDS011;20477;51.390;8.102;2023-07-30T01:12:30;5.95;;;2.95;;
34212;SDS011;20477;51.390;8.102;2023-07-30T01:14:59;11.20;;;3.10;;
34212;SDS011;20477;51.390;8.102;2023-07-30T01:17:27;10.48;;;2.35;;
34212;SDS011;20477;51.390;8.102;2023-07-30T01:19:55;4.50;;;2.60;;
34212;SDS011;20477;51.390;8.102;2023-07-30T01:22:25;4.63;;;2.70;;
34212;SDS011;20477;51.390;8.102;2023-07-30T01:24:53;4.40;;;2.78;;
34212;SDS011;20477;51.390;8.102;2023-07-30T01:27:22;6.85;;;4.00;;
34212;SDS011;20477;51.390;8.102;2023-07-30T01:29:52;5.47;;;2.88;;
34212;SDS011;20477;51.390;8.102;2023-07-30T01:32:24;7.47;;;2.75;;
34212;SDS011;20477;51.390;8.102;2023-07-30T01:34:54;12.68;;;4.03;;
34212;SDS011;20477;51.390;8.102;2023-07-30T01:37:24;7.57;;;3.20;;
34212;SDS011;20477;51.390;8.102;2023-07-30T01:39:53;5.95;;;3.10;;
34212;SDS011;20477;51.390;8.102;2023-07-30T01:42:21;13.25;;;3.08;;
34212;SDS011;20477;51.390;8.102;2023-07-30T01:44:49;8.65;;;2.90;;
34212;SDS011;20477;51.390;8.102;2023-07-30T01:47:17;10.20;;;3.08;;
34212;SDS011;20477;51.390;8.102;2023-07-30T01:49:45;9.25;;;3.10;;
34212;SDS011;20477;51.390;8.102;2023-07-30T01:52:14;8.63;;;3.13;;
34212;SDS011;20477;51.390;8.102;2023-07-30T01:54:43;8.80;;;3.22;;
34212;SDS011;20477;51.390;8.102;2023-07-30T01:57:11;7.50;;;2.80;;
34212;SDS011;20477;51.390;8.102;2023-07-30T01:59:40;5.25;;;2.78;;
34212;SDS011;20477;51.390;8.102;2023-07-30T02:02:08;7.03;;;2.95;;
34212;SDS011;20477;51.390;8.102;2023-07-30T02:04:36;6.15;;;3.03;;
34212;SDS011;20477;51.390;8.102;2023-07-30T02:07:04;6.68;;;3.10;;
34212;SDS011;20477;51.390;8.102;2023-07-30T02:09:32;7.22;;;3.20;;
34212;SDS011;20477;51.390;8.102;2023-07-30T02:12:02;10.50;;;3.35;;
34212;SDS011;20477;51.390;8.102;2023-07-30T02:14:30;9.05;;;3.95;;
34212;SDS011;20477;51.390;8.102;2023-07-30T02:16:58;7.47;;;3.80;;
34212;SDS011;20477;51.390;8.102;2023-07-30T02:19:26;12.82;;;4.60;;
34212;SDS011;20477;51.390;8.102;2023-07-30T02:21:55;7.60;;;4.22;;
34212;SDS011;20477;51.390;8.102;2023-07-30T02:24:23;8.43;;;3.80;;
34212;SDS011;20477;51.390;8.102;2023-07-30T02:26:51;6.60;;;3.92;;
34212;SDS011;20477;51.390;8.102;2023-07-30T02:29:20;16.98;;;4.60;;
34212;SDS011;20477;51.390;8.102;2023-07-30T02:31:48;10.90;;;4.50;;
34212;SDS011;20477;51.390;8.102;2023-07-30T02:34:17;8.65;;;4.40;;
34212;SDS011;20477;51.390;8.102;2023-07-30T02:36:45;6.60;;;3.85;;
34212;SDS011;20477;51.390;8.102;2023-07-30T02:39:13;8.18;;;3.65;;
34212;SDS011;20477;51.390;8.102;2023-07-30T02:41:41;10.32;;;4.75;;
34212;SDS011;20477;51.390;8.102;2023-07-30T02:44:09;10.13;;;3.50;;
34212;SDS011;20477;51.390;8.102;2023-07-30T02:46:38;11.27;;;4.53;;
34212;SDS011;20477;51.390;8.102;2023-07-30T02:49:06;9.02;;;3.92;;
34212;SDS011;20477;51.390;8.102;2023-07-30T02:51:35;7.68;;;4.15;;
34212;SDS011;20477;51.390;8.102;2023-07-30T02:54:04;12.98;;;4.30;;
34212;SDS011;20477;51.390;8.102;2023-07-30T02:56:33;11.70;;;3.63;;
34212;SDS011;20477;51.390;8.102;2023-07-30T02:59:01;8.73;;;4.18;;
34212;SDS011;20477;51.390;8.102;2023-07-30T03:01:29;12.75;;;5.10;;
34212;SDS011;20477;51.390;8.102;2023-07-30T03:04:00;11.18;;;4.47;;
34212;SDS011;20477;51.390;8.102;2023-07-30T03:06:29;9.25;;;4.40;;
34212;SDS011;20477;51.390;8.102;2023-07-30T03:08:57;11.93;;;3.90;;
34212;SDS011;20477;51.390;8.102;2023-07-30T03:11:25;11.18;;;4.20;;
34212;SDS011;20477;51.390;8.102;2023-07-30T03:13:53;9.88;;;3.90;;
34212;SDS011;20477;51.390;8.102;2023-07-30T03:16:21;11.80;;;4.65;;
34212;SDS011;20477;51.390;8.102;2023-07-30T03:18:50;17.50;;;5.20;;
34212;SDS011;20477;51.390;8.102;2023-07-30T03:21:19;14.93;;;4.38;;
34212;SDS011;20477;51.390;8.102;2023-07-30T03:23:47;9.13;;;4.63;;
34212;SDS011;20477;51.390;8.102;2023-07-30T03:26:15;8.43;;;4.60;;
34212;SDS011;20477;51.390;8.102;2023-07-30T03:28:43;11.80;;;4.97;;
34212;SDS011;20477;51.390;8.102;2023-07-30T03:31:11;10.18;;;4.47;;
34212;SDS011;20477;51.390;8.102;2023-07-30T03:33:39;9.00;;;4.57;;
34212;SDS011;20477;51.390;8.102;2023-07-30T03:36:10;7.95;;;3.67;;
34212;SDS011;20477;51.390;8.102;2023-07-30T03:38:39;16.63;;;3.72;;
34212;SDS011;20477;51.390;8.102;2023-07-30T03:41:07;8.80;;;3.80;;
34212;SDS011;20477;51.390;8.102;2023-07-30T03:43:35;10.38;;;3.90;;
34212;SDS011;20477;51.390;8.102;2023-07-30T03:46:04;11.38;;;4.35;;
34212;SDS011;20477;51.390;8.102;2023-07-30T03:48:32;9.30;;;3.60;;
34212;SDS011;20477;51.390;8.102;2023-07-30T03:51:00;14.68;;;3.92;;
34212;SDS011;20477;51.390;8.102;2023-07-30T03:53:29;11.98;;;3.85;;
34212;SDS011;20477;51.390;8.102;2023-07-30T03:55:58;7.10;;;3.17;;
34212;SDS011;20477;51.390;8.102;2023-07-30T03:58:26;12.80;;;3.88;;
34212;SDS011;20477;51.390;8.102;2023-07-30T04:00:56;7.72;;;3.38;;
34212;SDS011;20477;51.390;8.102;2023-07-30T04:03:24;10.57;;;4.00;;
34212;SDS011;20477;51.390;8.102;2023-07-30T04:05:53;9.57;;;3.38;;
34212;SDS011;20477;51.390;8.102;2023-07-30T04:08:21;10.55;;;3.50;;
34212;SDS011;20477;51.390;8.102;2023-07-30T04:10:49;12.48;;;4.53;;
34212;SDS011;20477;51.390;8.102;2023-07-30T04:13:19;15.27;;;3.72;;
34212;SDS011;20477;51.390;8.102;2023-07-30T04:15:47;8.52;;;3.45;;
34212;SDS011;20477;51.390;8.102;2023-07-30T04:18:15;4.55;;;3.22;;
34212;SDS011;20477;51.390;8.102;2023-07-30T04:20:43;12.48;;;3.70;;
34212;SDS011;20477;51.390;8.102;2023-07-30T04:23:11;9.55;;;3.10;;
34212;SDS011;20477;51.390;8.102;2023-07-30T04:25:39;12.90;;;3.67;;
34212;SDS011;20477;51.390;8.102;2023-07-30T04:28:07;9.38;;;3.42;;
34212;SDS011;20477;51.390;8.102;2023-07-30T04:30:37;11.80;;;4.22;;
34212;SDS011;20477;51.390;8.102;2023-07-30T04:33:05;14.35;;;4.15;;
34212;SDS011;20477;51.390;8.102;2023-07-30T04:35:33;12.75;;;3.80;;
34212;SDS011;20477;51.390;8.102;2023-07-30T04:38:02;11.10;;;3.88;;
34212;SDS011;20477;51.390;8.102;2023-07-30T04:40:30;12.20;;;3.95;;
34212;SDS011;20477;51.390;8.102;2023-07-30T04:42:58;11.82;;;3.33;;
34212;SDS011;20477;51.390;8.102;2023-07-30T04:45:26;14.32;;;3.38;;
34212;SDS011;20477;51.390;8.102;2023-07-30T04:47:55;9.45;;;3.05;;
34212;SDS011;20477;51.390;8.102;2023-07-30T04:50:23;7.22;;;3.88;;
34212;SDS011;20477;51.390;8.102;2023-07-30T04:52:52;8.00;;;3.10;;
34212;SDS011;20477;51.390;8.102;2023-07-30T04:55:20;15.13;;;3.88;;
34212;SDS011;20477;51.390;8.102;2023-07-30T04:57:48;9.60;;;3.95;;
34212;SDS011;20477;51.390;8.102;2023-07-30T05:00:16;8.40;;;3.13;;
34212;SDS011;20477;51.390;8.102;2023-07-30T05:02:44;12.32;;;3.95;;
34212;SDS011;20477;51.390;8.102;2023-07-30T05:05:14;13.75;;;3.47;;
34212;SDS011;20477;51.390;8.102;2023-07-30T05:07:42;7.97;;;3.88;;
34212;SDS011;20477;51.390;8.102;2023-07-30T05:10:10;8.90;;;3.50;;
34212;SDS011;20477;51.390;8.102;2023-07-30T05:12:38;10.95;;;3.80;;
34212;SDS011;20477;51.390;8.102;2023-07-30T05:15:07;6.78;;;3.20;;
34212;SDS011;20477;51.390;8.102;2023-07-30T05:17:35;10.70;;;3.65;;
34212;SDS011;20477;51.390;8.102;2023-07-30T05:20:04;7.88;;;3.53;;
34212;SDS011;20477;51.390;8.102;2023-07-30T05:22:34;13.25;;;3.30;;
34212;SDS011;20477;51.390;8.102;2023-07-30T05:25:02;14.55;;;4.03;;
34212;SDS011;20477;51.390;8.102;2023-07-30T05:27:31;11.23;;;3.53;;
34212;SDS011;20477;51.390;8.102;2023-07-30T05:29:59;15.32;;;3.45;;
34212;SDS011;20477;51.390;8.102;2023-07-30T05:32:27;9.40;;;3.28;;
34212;SDS011;20477;51.390;8.102;2023-07-30T05:34:55;14.43;;;3.50;;
34212;SDS011;20477;51.390;8.102;2023-07-30T05:37:23;8.68;;;3.33;;
34212;SDS011;20477;51.390;8.102;2023-07-30T05:39:52;11.13;;;3.63;;
34212;SDS011;20477;51.390;8.102;2023-07-30T05:42:21;10.25;;;3.00;;
34212;SDS011;20477;51.390;8.102;2023-07-30T05:44:49;9.65;;;3.13;;
34212;SDS011;20477;51.390;8.102;2023-07-30T05:47:17;6.72;;;2.72;;
34212;SDS011;20477;51.390;8.102;2023-07-30T05:49:45;8.32;;;2.70;;
34212;SDS011;20477;51.390;8.102;2023-07-30T05:52:13;10.40;;;3.00;;
34212;SDS011;20477;51.390;8.102;2023-07-30T05:54:41;9.23;;;3.38;;
34212;SDS011;20477;51.390;8.102;2023-07-30T05:57:11;11.30;;;3.20;;
34212;SDS011;20477;51.390;8.102;2023-07-30T05:59:39;7.97;;;2.53;;
34212;SDS011;20477;51.390;8.102;2023-07-30T06:02:07;7.97;;;2.17;;
34212;SDS011;20477;51.390;8.102;2023-07-30T06:04:35;9.00;;;2.63;;
34212;SDS011;20477;51.390;8.102;2023-07-30T06:07:03;10.18;;;2.50;;
34212;SDS011;20477;51.390;8.102;2023-07-30T06:09:31;4.78;;;2.05;;
34212;SDS011;20477;51.390;8.102;2023-07-30T06:12:00;7.00;;;2.08;;
34212;SDS011;20477;51.390;8.102;2023-07-30T06:14:29;6.03;;;1.88;;
34212;SDS011;20477;51.390;8.102;2023-07-30T06:16:57;5.50;;;2.30;;
34212;SDS011;20477;51.390;8.102;2023-07-30T06:19:25;7.28;;;2.42;;
34212;SDS011;20477;51.390;8.102;2023-07-30T06:21:54;10.95;;;2.78;;
34212;SDS011;20477;51.390;8.102;2023-07-30T06:24:22;4.45;;;1.75;;
34212;SDS011;20477;51.390;8.102;2023-07-30T06:26:50;7.22;;;1.88;;
34212;SDS011;20477;51.390;8.102;2023-07-30T06:29:18;7.32;;;2.33;;
34212;SDS011;20477;51.390;8.102;2023-07-30T06:31:48;11.13;;;2.38;;
34212;SDS011;20477;51.390;8.102;2023-07-30T06:34:16;8.85;;;2.08;;
34212;SDS011;20477;51.390;8.102;2023-07-30T06:36:44;5.63;;;1.90;;
34212;SDS011;20477;51.390;8.102;2023-07-30T06:39:12;9.95;;;2.35;;
34212;SDS011;20477;51.390;8.102;2023-07-30T06:41:40;13.10;;;2.85;;
34212;SDS011;20477;51.390;8.102;2023-07-30T06:44:08;8.05;;;2.35;;
34212;SDS011;20477;51.390;8.102;2023-07-30T06:46:37;9.88;;;2.25;;
34212;SDS011;20477;51.390;8.102;2023-07-30T06:49:06;6.70;;;2.03;;
34212;SDS011;20477;51.390;8.102;2023-07-30T06:51:34;9.30;;;2.47;;
34212;SDS011;20477;51.390;8.102;2023-07-30T06:54:04;8.52;;;2.40;;
34212;SDS011;20477;51.390;8.102;2023-07-30T06:56:32;8.55;;;2.17;;
34212;SDS011;20477;51.390;8.102;2023-07-30T06:59:01;9.73;;;2.30;;
34212;SDS011;20477;51.390;8.102;2023-07-30T07:01:29;8.77;;;2.38;;
34212;SDS011;20477;51.390;8.102;2023-07-30T07:03:58;11.23;;;2.50;;
34212;SDS011;20477;51.390;8.102;2023-07-30T07:06:27;11.88;;;2.70;;
34212;SDS011;20477;51.390;8.102;2023-07-30T07:08:55;11.40;;;2.35;;
34212;SDS011;20477;51.390;8.102;2023-07-30T07:11:24;11.15;;;2.50;;
34212;SDS011;20477;51.390;8.102;2023-07-30T07:13:52;12.40;;;2.40;;
34212;SDS011;20477;51.390;8.102;2023-07-30T07:16:20;11.10;;;2.05;;
34212;SDS011;20477;51.390;8.102;2023-07-30T07:18:48;9.07;;;2.40;;
34212;SDS011;20477;51.390;8.102;2023-07-30T07:21:16;10.70;;;2.33;;
34212;SDS011;20477;51.390;8.102;2023-07-30T07:23:48;12.18;;;2.20;;
34212;SDS011;20477;51.390;8.102;2023-07-30T07:26:16;9.63;;;2.10;;
34212;SDS011;20477;51.390;8.102;2023-07-30T07:28:44;8.60;;;2.65;;
34212;SDS011;20477;51.390;8.102;2023-07-30T07:31:13;11.18;;;2.80;;
34212;SDS011;20477;51.390;8.102;2023-07-30T07:33:41;7.47;;;2.25;;
34212;SDS011;20477;51.390;8.102;2023-07-30T07:36:09;6.97;;;1.77;;
34212;SDS011;20477;51.390;8.102;2023-07-30T07:38:37;5.45;;;1.80;;
34212;SDS011;20477;51.390;8.102;2023-07-30T07:41:06;8.95;;;1.90;;
34212;SDS011;20477;51.390;8.102;2023-07-30T07:43:35;8.68;;;1.63;;
34212;SDS011;20477;51.390;8.102;2023-07-30T07:46:03;7.55;;;2.10;;
34212;SDS011;20477;51.390;8.102;2023-07-30T07:48:36;10.18;;;2.67;;
34212;SDS011;20477;51.390;8.102;2023-07-30T07:51:04;10.30;;;2.83;;
34212;SDS011;20477;51.390;8.102;2023-07-30T07:53:32;10.73;;;2.75;;
34212;SDS011;20477;51.390;8.102;2023-07-30T07:56:00;8.15;;;2.22;;
34212;SDS011;20477;51.390;8.102;2023-07-30T07:58:30;7.25;;;2.25;;
34212;SDS011;20477;51.390;8.102;2023-07-30T08:00:59;11.00;;;2.42;;
34212;SDS011;20477;51.390;8.102;2023-07-30T08:03:27;11.75;;;2.63;;
34212;SDS011;20477;51.390;8.102;2023-07-30T08:05:55;7.68;;;2.40;;
34212;SDS011;20477;51.390;8.102;2023-07-30T08:08:23;10.38;;;3.33;;
34212;SDS011;20477;51.390;8.102;2023-07-30T08:10:52;8.43;;;2.83;;
34212;SDS011;20477;51.390;8.102;2023-07-30T08:13:21;7.13;;;2.10;;
34212;SDS011;20477;51.390;8.102;2023-07-30T08:15:50;13.63;;;2.53;;
34212;SDS011;20477;51.390;8.102;2023-07-30T08:18:18;10.68;;;2.60;;
34212;SDS011;20477;51.390;8.102;2023-07-30T08:20:46;13.10;;;2.55;;
34212;SDS011;20477;51.390;8.102;2023-07-30T08:23:14;8.73;;;2.22;;
34212;SDS011;20477;51.390;8.102;2023-07-30T08:25:42;5.80;;;2.10;;
34212;SDS011;20477;51.390;8.102;2023-07-30T08:28:11;9.18;;;2.90;;
34212;SDS011;20477;51.390;8.102;2023-07-30T08:30:39;10.20;;;2.65;;
34212;SDS011;20477;51.390;8.102;2023-07-30T08:33:08;9.32;;;2.25;;
34212;SDS011;20477;51.390;8.102;2023-07-30T08:35:36;11.55;;;2.65;;
34212;SDS011;20477;51.390;8.102;2023-07-30T08:38:04;8.00;;;2.30;;
34212;SDS011;20477;51.390;8.102;2023-07-30T08:40:33;6.57;;;2.28;;
34212;SDS011;20477;51.390;8.102;2023-07-30T08:43:01;12.90;;;3.33;;
34212;SDS011;20477;51.390;8.102;2023-07-30T08:45:30;9.35;;;2.85;;
34212;SDS011;20477;51.390;8.102;2023-07-30T08:47:58;9.70;;;3.13;;
34212;SDS011;20477;51.390;8.102;2023-07-30T08:50:28;9.55;;;2.95;;
34212;SDS011;20477;51.390;8.102;2023-07-30T08:52:56;12.50;;;3.40;;
34212;SDS011;20477;51.390;8.102;2023-07-30T08:55:27;6.00;;;2.47;;
34212;SDS011;20477;51.390;8.102;2023-07-30T08:57:56;8.90;;;2.33;;
34212;SDS011;20477;51.390;8.102;2023-07-30T09:00:25;6.43;;;2.33;;
34212;SDS011;20477;51.390;8.102;2023-07-30T09:02:54;8.40;;;2.40;;
34212;SDS011;20477;51.390;8.102;2023-07-30T09:05:27;13.43;;;3.70;;
34212;SDS011;20477;51.390;8.102;2023-07-30T09:07:55;10.43;;;3.15;;
34212;SDS011;20477;51.390;8.102;2023-07-30T09:10:25;12.70;;;2.67;;
34212;SDS011;20477;51.390;8.102;2023-07-30T09:12:54;9.18;;;3.03;;
34212;SDS011;20477;51.390;8.102;2023-07-30T09:15:30;12.73;;;3.53;;
34212;SDS011;20477;51.390;8.102;2023-07-30T09:18:00;14.20;;;2.80;;
34212;SDS011;20477;51.390;8.102;2023-07-30T09:20:30;6.50;;;3.05;;
34212;SDS011;20477;51.390;8.102;2023-07-30T09:23:06;7.18;;;2.90;;
34212;SDS011;20477;51.390;8.102;2023-07-30T09:25:35;12.52;;;3.55;;
34212;SDS011;20477;51.390;8.102;2023-07-30T09:28:04;9.38;;;3.17;;
34212;SDS011;20477;51.390;8.102;2023-07-30T09:30:33;6.82;;;2.55;;
34212;SDS011;20477;51.390;8.102;2023-07-30T09:33:01;9.07;;;3.38;;
34212;SDS011;20477;51.390;8.102;2023-07-30T09:35:32;7.85;;;3.08;;
34212;SDS011;20477;51.390;8.102;2023-07-30T09:38:02;11.13;;;3.20;;
34212;SDS011;20477;51.390;8.102;2023-07-30T09:40:32;10.45;;;3.38;;
34212;SDS011;20477;51.390;8.102;2023-07-30T09:43:01;10.98;;;3.83;;
34212;SDS011;20477;51.390;8.102;2023-07-30T09:45:32;11.65;;;3.22;;
34212;SDS011;20477;51.390;8.102;2023-07-30T09:48:02;13.65;;;3.20;;
34212;SDS011;20477;51.390;8.102;2023-07-30T09:50:33;11.60;;;3.00;;
34212;SDS011;20477;51.390;8.102;2023-07-30T09:53:01;11.13;;;2.97;;
34212;SDS011;20477;51.390;8.102;2023-07-30T09:55:30;10.30;;;3.15;;
34212;SDS011;20477;51.390;8.102;2023-07-30T09:57:58;13.38;;;3.80;;
34212;SDS011;20477;51.390;8.102;2023-07-30T10:00:26;11.80;;;2.60;;
34212;SDS011;20477;51.390;8.102;2023-07-30T10:02:55;10.65;;;2.50;;
34212;SDS011;20477;51.390;8.102;2023-07-30T10:05:28;11.55;;;2.58;;
34212;SDS011;20477;51.390;8.102;2023-07-30T10:08:02;8.52;;;2.67;;
34212;SDS011;20477;51.390;8.102;2023-07-30T10:10:31;19.40;;;3.55;;
34212;SDS011;20477;51.390;8.102;2023-07-30T10:13:00;10.07;;;2.58;;
34212;SDS011;20477;51.390;8.102;2023-07-30T10:15:33;13.55;;;2.90;;
34212;SDS011;20477;51.390;8.102;2023-07-30T10:18:02;15.70;;;2.80;;
34212;SDS011;20477;51.390;8.102;2023-07-30T10:20:30;8.68;;;2.20;;
34212;SDS011;20477;51.390;8.102;2023-07-30T10:23:00;13.45;;;3.38;;
34212;SDS011;20477;51.390;8.102;2023-07-30T10:25:41;12.32;;;2.90;;
34212;SDS011;20477;51.390;8.102;2023-07-30T10:28:22;9.43;;;2.50;;
34212;SDS011;20477;51.390;8.102;2023-07-30T10:30:57;11.90;;;2.88;;
34212;SDS011;20477;51.390;8.102;2023-07-30T10:36:13;9.63;;;2.83;;
34212;SDS011;20477;51.390;8.102;2023-07-30T10:38:43;11.93;;;2.55;;
34212;SDS011;20477;51.390;8.102;2023-07-30T10:41:14;9.52;;;2.50;;
34212;SDS011;20477;51.390;8.102;2023-07-30T10:43:45;9.25;;;2.40;;
34212;SDS011;20477;51.390;8.102;2023-07-30T10:46:15;12.07;;;2.67;;
34212;SDS011;20477;51.390;8.102;2023-07-30T10:48:44;14.05;;;2.85;;
34212;SDS011;20477;51.390;8.102;2023-07-30T10:51:14;8.32;;;2.40;;
34212;SDS011;20477;51.390;8.102;2023-07-30T10:53:44;13.30;;;2.45;;
34212;SDS011;20477;51.390;8.102;2023-07-30T10:56:13;8.20;;;2.28;;
34212;SDS011;20477;51.390;8.102;2023-07-30T10:58:43;9.95;;;2.58;;
34212;SDS011;20477;51.390;8.102;2023-07-30T11:01:16;16.90;;;2.95;;
34212;SDS011;20477;51.390;8.102;2023-07-30T11:03:47;7.30;;;2.08;;
34212;SDS011;20477;51.390;8.102;2023-07-30T11:06:21;18.55;;;2.83;;
34212;SDS011;20477;51.390;8.102;2023-07-30T11:08:51;10.18;;;2.75;;
34212;SDS011;20477;51.390;8.102;2023-07-30T11:11:19;9.32;;;2.55;;
34212;SDS011;20477;51.390;8.102;2023-07-30T11:13:50;8.35;;;2.17;;
34212;SDS011;20477;51.390;8.102;2023-07-30T11:16:19;12.38;;;2.63;;
34212;SDS011;20477;51.390;8.102;2023-07-30T11:18:47;9.50;;;2.75;;
34212;SDS011;20477;51.390;8.102;2023-07-30T11:21:16;13.95;;;2.42;;
34212;SDS011;20477;51.390;8.102;2023-07-30T11:23:45;11.98;;;2.13;;
34212;SDS011;20477;51.390;8.102;2023-07-30T11:26:15;10.55;;;2.22;;
34212;SDS011;20477;51.390;8.102;2023-07-30T11:28:44;9.43;;;2.63;;
34212;SDS011;20477;51.390;8.102;2023-07-30T11:31:13;11.63;;;2.20;;
34212;SDS011;20477;51.390;8.102;2023-07-30T11:33:43;6.50;;;1.88;;
34212;SDS011;20477;51.390;8.102;2023-07-30T11:36:13;7.90;;;1.85;;
34212;SDS011;20477;51.390;8.102;2023-07-30T11:38:42;5.53;;;1.65;;
34212;SDS011;20477;51.390;8.102;2023-07-30T11:41:11;7.80;;;1.58;;
34212;SDS011;20477;51.390;8.102;2023-07-30T11:43:41;6.78;;;2.45;;
34212;SDS011;20477;51.390;8.102;2023-07-30T11:46:11;6.32;;;1.92;;
34212;SDS011;20477;51.390;8.102;2023-07-30T11:48:40;7.93;;;2.05;;
34212;SDS011;20477;51.390;8.102;2023-07-30T11:51:20;8.52;;;1.88;;
34212;SDS011;20477;51.390;8.102;2023-07-30T11:53:51;5.43;;;1.70;;
34212;SDS011;20477;51.390;8.102;2023-07-30T11:56:20;5.20;;;1.42;;
34212;SDS011;20477;51.390;8.102;2023-07-30T11:58:52;13.80;;;2.30;;
34212;SDS011;20477;51.390;8.102;2023-07-30T12:01:22;8.70;;;2.10;;
34212;SDS011;20477;51.390;8.102;2023-07-30T12:03:53;11.10;;;1.90;;
34212;SDS011;20477;51.390;8.102;2023-07-30T12:06:22;6.00;;;1.60;;
34212;SDS011;20477;51.390;8.102;2023-07-30T12:08:50;8.05;;;2.25;;
34212;SDS011;20477;51.390;8.102;2023-07-30T12:11:19;11.23;;;1.98;;
34212;SDS011;20477;51.390;8.102;2023-07-30T12:13:47;6.45;;;2.25;;
34212;SDS011;20477;51.390;8.102;2023-07-30T12:16:18;7.70;;;1.90;;
34212;SDS011;20477;51.390;8.102;2023-07-30T12:18:47;7.70;;;1.95;;
34212;SDS011;20477;51.390;8.102;2023-07-30T12:21:15;7.32;;;1.92;;
34212;SDS011;20477;51.390;8.102;2023-07-30T12:23:44;8.20;;;1.83;;
34212;SDS011;20477;51.390;8.102;2023-07-30T12:26:12;7.30;;;1.70;;
34212;SDS011;20477;51.390;8.102;2023-07-30T12:28:40;8.65;;;1.65;;
34212;SDS011;20477;51.390;8.102;2023-07-30T12:31:09;15.15;;;2.10;;
34212;SDS011;20477;51.390;8.102;2023-07-30T12:33:39;11.50;;;1.95;;
34212;SDS011;20477;51.390;8.102;2023-07-30T12:36:09;7.63;;;2.00;;
34212;SDS011;20477;51.390;8.102;2023-07-30T12:38:38;12.35;;;2.72;;
34212;SDS011;20477;51.390;8.102;2023-07-30T12:43:39;16.45;;;2.10;;
34212;SDS011;20477;51.390;8.102;2023-07-30T12:46:08;5.90;;;1.83;;
34212;SDS011;20477;51.390;8.102;2023-07-30T12:48:39;10.80;;;2.13;;
34212;SDS011;20477;51.390;8.102;2023-07-30T12:51:09;8.93;;;1.83;;
34212;SDS011;20477;51.390;8.102;2023-07-30T12:53:38;7.03;;;1.92;;
34212;SDS011;20477;51.390;8.102;2023-07-30T12:56:07;8.35;;;2.05;;
34212;SDS011;20477;51.390;8.102;2023-07-30T12:58:37;11.82;;;2.63;;
34212;SDS011;20477;51.390;8.102;2023-07-30T13:01:06;5.45;;;1.83;;
34212;SDS011;20477;51.390;8.102;2023-07-30T13:03:36;12.32;;;2.03;;
34212;SDS011;20477;51.390;8.102;2023-07-30T13:06:07;6.05;;;1.65;;
34212;SDS011;20477;51.390;8.102;2023-07-30T13:08:37;5.03;;;1.60;;
34212;SDS011;20477;51.390;8.102;2023-07-30T13:11:07;11.02;;;2.15;;
34212;SDS011;20477;51.390;8.102;2023-07-30T13:13:36;10.32;;;2.25;;
34212;SDS011;20477;51.390;8.102;2023-07-30T13:16:05;6.63;;;2.05;;
34212;SDS011;20477;51.390;8.102;2023-07-30T13:18:35;12.48;;;2.17;;
34212;SDS011;20477;51.390;8.102;2023-07-30T13:21:04;12.88;;;2.30;;
34212;SDS011;20477;51.390;8.102;2023-07-30T13:23:35;11.55;;;2.22;;
34212;SDS011;20477;51.390;8.102;2023-07-30T13:26:04;7.28;;;2.08;;
34212;SDS011;20477;51.390;8.102;2023-07-30T13:28:32;11.02;;;2.30;;
34212;SDS011;20477;51.390;8.102;2023-07-30T13:31:00;9.35;;;1.95;;
34212;SDS011;20477;51.390;8.102;2023-07-30T13:33:28;10.95;;;2.17;;
34212;SDS011;20477;51.390;8.102;2023-07-30T13:35:56;7.65;;;1.90;;
34212;SDS011;20477;51.390;8.102;2023-07-30T13:38:25;8.85;;;2.30;;
34212;SDS011;20477;51.390;8.102;2023-07-30T13:40:55;6.00;;;1.40;;
34212;SDS011;20477;51.390;8.102;2023-07-30T13:43:23;7.53;;;2.08;;
34212;SDS011;20477;51.390;8.102;2023-07-30T13:45:51;23.08;;;2.22;;
34212;SDS011;20477;51.390;8.102;2023-07-30T13:48:19;7.90;;;1.60;;
34212;SDS011;20477;51.390;8.102;2023-07-30T13:50:48;8.07;;;1.67;;
34212;SDS011;20477;51.390;8.102;2023-07-30T13:53:16;8.48;;;2.10;;
34212;SDS011;20477;51.390;8.102;2023-07-30T13:55:44;10.38;;;1.92;;
34212;SDS011;20477;51.390;8.102;2023-07-30T13:58:14;9.57;;;2.05;;
34212;SDS011;20477;51.390;8.102;2023-07-30T14:00:42;6.85;;;2.33;;
34212;SDS011;20477;51.390;8.102;2023-07-30T14:03:10;10.50;;;1.85;;
34212;SDS011;20477;51.390;8.102;2023-07-30T14:05:39;7.85;;;1.70;;
34212;SDS011;20477;51.390;8.102;2023-07-30T14:08:07;4.18;;;1.42;;
34212;SDS011;20477;51.390;8.102;2023-07-30T14:10:35;4.82;;;1.63;;
34212;SDS011;20477;51.390;8.102;2023-07-30T14:13:03;6.10;;;1.65;;
34212;SDS011;20477;51.390;8.102;2023-07-30T14:15:33;4.47;;;1.40;;
34212;SDS011;20477;51.390;8.102;2023-07-30T14:18:01;7.22;;;1.48;;
34212;SDS011;20477;51.390;8.102;2023-07-30T14:20:29;5.03;;;1.00;;
34212;SDS011;20477;51.390;8.102;2023-07-30T14:22:57;7.43;;;1.80;;
34212;SDS011;20477;51.390;8.102;2023-07-30T14:25:28;10.45;;;1.83;;
34212;SDS011;20477;51.390;8.102;2023-07-30T14:27:56;3.63;;;1.23;;
34212;SDS011;20477;51.390;8.102;2023-07-30T14:30:24;3.00;;;1.20;;
34212;SDS011;20477;51.390;8.102;2023-07-30T14:32:54;9.50;;;1.73;;
34212;SDS011;20477;51.390;8.102;2023-07-30T14:35:22;5.82;;;1.83;;
34212;SDS011;20477;51.390;8.102;2023-07-30T14:37:50;6.63;;;1.73;;
34212;SDS011;20477;51.390;8.102;2023-07-30T14:40:18;7.05;;;1.45;;
34212;SDS011;20477;51.390;8.102;2023-07-30T14:42:46;3.20;;;1.48;;
34212;SDS011;20477;51.390;8.102;2023-07-30T14:45:15;6.43;;;1.58;;
34212;SDS011;20477;51.390;8.102;2023-07-30T14:47:43;5.40;;;1.35;;
34212;SDS011;20477;51.390;8.102;2023-07-30T14:50:16;6.22;;;1.65;;
34212;SDS011;20477;51.390;8.102;2023-07-30T14:52:44;9.98;;;1.55;;
34212;SDS011;20477;51.390;8.102;2023-07-30T14:55:13;7.47;;;1.77;;
34212;SDS011;20477;51.390;8.102;2023-07-30T14:57:41;10.00;;;2.10;;